createdAt,value
2023-04-25T00:02:25.977Z,1.80
2023-04-25T00:07:29.492Z,1.20
2023-04-25T00:12:31.848Z,1.10
2023-04-25T00:17:34.214Z,1.37
2023-04-25T00:22:37.858Z,1.47
2023-04-25T00:27:40.239Z,1.60
2023-04-25T00:32:42.455Z,1.30
2023-04-25T00:37:46.015Z,1.40
2023-04-25T00:42:48.557Z,1.57
2023-04-25T00:47:50.968Z,1.37
2023-04-25T00:52:54.459Z,1.47
2023-04-25T00:57:56.587Z,1.57
2023-04-25T01:02:59.841Z,1.40
2023-04-25T01:08:03.842Z,1.90
2023-04-25T01:13:06.552Z,1.50
2023-04-25T01:18:08.292Z,1.67
2023-04-25T01:23:13.762Z,1.33
2023-04-25T01:28:15.851Z,1.43
2023-04-25T01:33:20.132Z,1.63
2023-04-25T01:38:23.869Z,1.80
2023-04-25T01:43:26.256Z,1.93
2023-04-25T01:48:28.526Z,1.63
2023-04-25T01:53:32.047Z,1.60
2023-04-25T01:58:34.292Z,2.00
2023-04-25T02:03:36.496Z,1.90
2023-04-25T02:08:40.060Z,1.70
2023-04-25T02:13:42.422Z,2.00
2023-04-25T02:18:44.511Z,2.13
2023-04-25T02:23:48.106Z,2.13
2023-04-25T02:28:50.355Z,1.90
2023-04-25T02:33:52.910Z,1.70
2023-04-25T02:38:56.516Z,1.83
2023-04-25T02:43:58.998Z,1.90
2023-04-25T02:49:01.110Z,1.90
2023-04-25T02:54:04.676Z,2.10
2023-04-25T02:59:07.000Z,2.07
2023-04-25T03:04:09.057Z,1.80
2023-04-25T03:09:12.459Z,1.93
2023-04-25T03:14:14.829Z,2.20
2023-04-25T03:19:17.006Z,2.17
2023-04-25T03:24:20.580Z,2.70
2023-04-25T03:29:22.930Z,2.20
2023-04-25T03:34:24.934Z,2.43
2023-04-25T03:39:28.408Z,2.23
2023-04-25T03:49:32.717Z,2.20
2023-04-25T03:54:35.735Z,3.70
2023-04-25T03:59:37.856Z,2.47
2023-04-25T04:04:40.164Z,2.70
2023-04-25T04:09:43.792Z,2.27
2023-04-25T04:14:45.979Z,2.60
2023-04-25T04:19:47.703Z,2.50
2023-04-25T04:24:51.530Z,3.10
2023-04-25T04:29:53.634Z,2.53
2023-04-25T04:34:55.731Z,2.40
2023-04-25T04:39:59.187Z,3.17
2023-04-25T04:45:00.877Z,3.70
2023-04-25T04:50:03.127Z,2.90
2023-04-25T04:55:07.806Z,3.07
2023-04-25T05:00:11.274Z,3.07
2023-04-25T05:05:13.329Z,2.93
2023-04-25T05:10:16.796Z,2.73
2023-04-25T05:15:19.221Z,2.67
2023-04-25T05:20:21.106Z,2.63
2023-04-25T05:25:24.221Z,2.40
2023-04-25T05:30:26.287Z,2.97
2023-04-25T05:35:28.055Z,3.33
2023-04-25T05:40:31.554Z,2.90
2023-04-25T05:45:34.071Z,2.40
2023-04-25T05:50:36.149Z,2.80
2023-04-25T05:55:39.787Z,2.40
2023-04-25T06:00:41.491Z,2.83
2023-04-25T06:05:44.033Z,2.63
2023-04-25T06:10:47.388Z,2.93
2023-04-25T06:15:49.363Z,3.37
2023-04-25T06:20:51.041Z,3.03
2023-04-25T06:25:56.396Z,3.13
2023-04-25T06:30:58.379Z,3.13
2023-04-25T06:36:00.124Z,2.70
2023-04-25T06:41:22.013Z,2.93
2023-04-25T06:46:24.298Z,2.40
2023-04-25T06:51:26.013Z,3.50
2023-04-25T06:56:29.950Z,2.83
2023-04-25T07:01:31.813Z,2.70
2023-04-25T07:06:33.598Z,2.20
2023-04-25T07:11:37.519Z,2.40
2023-04-25T07:16:39.836Z,2.20
2023-04-25T07:21:42.036Z,2.00
2023-04-25T07:26:45.238Z,2.10
2023-04-25T07:31:47.102Z,2.07
2023-04-25T07:36:48.890Z,2.67
2023-04-25T07:41:54.990Z,2.30
2023-04-25T07:46:57.110Z,2.47
2023-04-25T07:51:59.195Z,2.53
2023-04-25T07:57:02.658Z,2.03
2023-04-25T08:02:04.523Z,2.63
2023-04-25T08:07:06.635Z,2.43
2023-04-25T08:12:09.673Z,2.47
2023-04-25T08:17:12.014Z,2.23
2023-04-25T08:22:13.776Z,2.13
2023-04-25T08:27:17.319Z,2.10
2023-04-25T08:32:19.490Z,2.33
2023-04-25T08:37:21.669Z,2.40
2023-04-25T08:42:28.051Z,2.00
2023-04-25T08:47:31.172Z,2.40
2023-04-25T08:52:37.552Z,1.80
2023-04-25T08:57:42.158Z,1.60
2023-04-25T09:02:44.981Z,1.87
2023-04-25T09:07:48.549Z,1.57
2023-04-25T09:13:05.602Z,1.70
2023-04-25T09:18:07.943Z,1.70
2023-04-25T09:23:10.232Z,1.90
2023-04-25T09:28:13.674Z,1.70
2023-04-25T09:33:15.818Z,2.00
2023-04-25T09:38:19.737Z,1.47
2023-04-25T09:43:24.943Z,1.80
2023-04-25T09:48:28.828Z,1.37
2023-04-25T09:53:30.985Z,1.50
2023-04-25T09:58:35.053Z,1.27
2023-04-25T10:03:38.463Z,1.27
2023-04-25T10:08:41.830Z,1.30
2023-04-25T10:13:46.665Z,1.27
2023-04-25T10:18:49.868Z,1.50
2023-04-25T10:23:53.110Z,1.20
2023-04-25T10:29:00.951Z,1.30
2023-04-25T10:34:02.737Z,1.40
2023-04-25T10:39:06.253Z,1.43
2023-04-25T10:44:09.983Z,1.67
2023-04-25T10:49:13.656Z,1.70
2023-04-25T10:54:19.175Z,1.83
2023-04-25T10:59:26.400Z,1.27
2023-04-25T11:04:31.516Z,1.20
2023-04-25T11:09:34.887Z,1.20
2023-04-25T11:19:43.582Z,2.00
2023-04-25T11:24:46.919Z,1.37
2023-04-25T11:29:50.589Z,1.27
2023-04-25T11:34:53.948Z,1.73
2023-04-25T11:39:56.022Z,1.10
2023-04-25T11:44:59.469Z,1.27
2023-04-25T11:50:01.979Z,0.90
2023-04-25T11:55:06.281Z,1.27
2023-04-25T12:00:14.505Z,1.50
2023-04-25T12:10:26.300Z,1.50
2023-04-25T12:15:29.758Z,1.20
2023-04-25T12:20:32.614Z,1.10
2023-04-25T12:25:39.128Z,1.07
2023-04-25T12:30:59.991Z,1.20
2023-04-25T12:36:04.472Z,1.13
2023-04-25T12:41:08.321Z,1.23
2023-04-25T12:46:11.709Z,1.00
2023-04-25T12:51:13.830Z,0.80
2023-04-25T12:56:15.586Z,1.30
2023-04-25T13:01:18.767Z,1.00
2023-04-25T13:06:21.856Z,1.83
2023-04-25T13:11:23.795Z,1.40
2023-04-25T13:16:26.959Z,1.40
2023-04-25T13:21:31.476Z,1.10
2023-04-25T13:26:33.481Z,1.40
2023-04-25T13:31:36.888Z,1.40
2023-04-25T13:36:39.048Z,1.70
2023-04-25T13:41:41.083Z,1.30
2023-04-25T13:46:47.219Z,1.13
2023-04-25T13:51:50.045Z,1.40
2023-04-25T13:56:52.135Z,1.60
2023-04-25T14:01:55.885Z,1.80
2023-04-25T14:06:58.282Z,1.43
2023-04-25T14:12:00.384Z,1.37
2023-04-25T14:17:04.323Z,1.60
2023-04-25T14:22:06.962Z,1.30
2023-04-25T14:27:09.107Z,1.80
2023-04-25T14:32:12.715Z,1.60
2023-04-25T14:37:14.798Z,1.43
2023-04-25T14:42:16.881Z,1.10
2023-04-25T14:47:20.247Z,1.07
2023-04-25T14:52:21.921Z,1.50
2023-04-25T14:57:23.637Z,1.13
2023-04-25T15:02:27.410Z,1.30
2023-04-25T15:07:29.590Z,1.40
2023-04-25T15:12:31.634Z,1.13
2023-04-25T15:17:35.311Z,1.20
2023-04-25T15:22:37.848Z,1.03
2023-04-25T15:27:40.809Z,0.87
2023-04-25T15:32:44.717Z,0.97
2023-04-25T15:37:47.237Z,0.80
2023-04-25T15:42:50.772Z,1.00
2023-04-25T15:47:55.417Z,1.03
2023-04-25T15:52:57.120Z,1.07
2023-04-25T15:57:59.140Z,0.83
2023-04-25T16:03:02.890Z,0.60
2023-04-25T16:08:04.880Z,0.67
2023-04-25T16:13:06.981Z,0.80
2023-04-25T16:18:10.516Z,1.10
2023-04-25T16:23:12.756Z,0.67
2023-04-25T16:28:14.831Z,1.03
2023-04-25T16:33:17.978Z,0.70
2023-04-25T16:38:20.236Z,0.70
2023-04-25T16:43:22.293Z,0.87
2023-04-25T16:48:25.654Z,0.80
2023-04-25T16:53:27.535Z,0.93
2023-04-25T16:58:29.700Z,1.47
2023-04-25T17:03:34.851Z,0.67
2023-04-25T17:08:37.792Z,0.80
2023-04-25T17:13:39.901Z,0.90
2023-04-25T17:18:43.464Z,0.60
2023-04-25T17:23:45.800Z,0.83
2023-04-25T17:28:47.740Z,0.80
2023-04-25T17:33:50.763Z,0.57
2023-04-25T17:38:52.566Z,0.67
2023-04-25T17:43:54.483Z,0.90
2023-04-25T17:48:57.781Z,0.80
2023-04-25T17:53:59.463Z,0.50
2023-04-25T17:59:01.260Z,0.70
2023-04-25T18:04:05.090Z,0.80
2023-04-25T18:09:07.543Z,1.37
2023-04-25T18:14:09.522Z,0.80
2023-04-25T18:19:13.079Z,1.17
2023-04-25T18:24:15.593Z,0.67
2023-04-25T18:29:31.402Z,0.80
2023-04-25T18:34:37.462Z,0.57
2023-04-25T18:39:39.656Z,1.17
2023-04-25T18:44:41.775Z,0.80
2023-04-25T18:49:45.367Z,0.93
2023-04-25T18:54:47.125Z,1.03
2023-04-25T18:59:48.881Z,0.60
2023-04-25T19:04:51.998Z,0.80
2023-04-25T19:09:53.841Z,0.77
2023-04-25T19:14:55.592Z,0.73
2023-04-25T19:19:58.790Z,0.80
2023-04-25T19:25:09.906Z,1.10
2023-04-25T19:30:13.796Z,0.50
2023-04-25T19:35:17.656Z,0.97
2023-04-25T19:40:19.997Z,1.00
2023-04-25T19:45:22.368Z,0.90
2023-04-25T19:50:25.575Z,1.17
2023-04-25T19:55:27.502Z,1.27
2023-04-25T20:00:29.191Z,1.40
2023-04-25T20:05:32.301Z,1.07
2023-04-25T20:10:34.239Z,0.80
2023-04-25T20:15:36.184Z,0.87
2023-04-25T20:20:39.346Z,0.40
2023-04-25T20:25:41.349Z,0.63
2023-04-25T20:30:44.088Z,0.80
2023-04-25T20:35:47.418Z,1.00
2023-04-25T20:40:49.635Z,0.83
2023-04-25T20:45:51.520Z,0.80
2023-04-25T20:50:54.560Z,0.80
2023-04-25T20:55:56.744Z,0.80
2023-04-25T21:00:59.060Z,0.80
2023-04-25T21:06:02.661Z,0.80
2023-04-25T21:11:04.825Z,0.90
2023-04-25T21:16:07.335Z,0.83
2023-04-25T21:21:10.626Z,1.00
2023-04-25T21:26:12.933Z,0.87
2023-04-25T21:31:15.119Z,0.80
2023-04-25T21:36:18.705Z,1.10
2023-04-25T21:41:20.745Z,0.90
2023-04-25T21:46:23.836Z,0.63
2023-04-25T21:51:27.481Z,0.87
2023-04-25T21:56:29.407Z,0.73
2023-04-25T22:01:31.648Z,0.70
2023-04-25T22:06:35.180Z,1.63
2023-04-25T22:11:37.282Z,0.90
2023-04-25T22:16:39.754Z,0.87
2023-04-25T22:21:43.742Z,1.00
2023-04-25T22:26:46.122Z,0.87
2023-04-25T22:31:48.137Z,0.70
2023-04-25T22:36:51.554Z,0.87
2023-04-25T22:41:53.768Z,1.20
2023-04-25T22:46:55.913Z,0.80
2023-04-25T22:51:59.392Z,1.00
2023-04-25T22:57:01.569Z,0.77
2023-04-25T23:02:03.755Z,0.80
2023-04-25T23:07:06.894Z,0.90
2023-04-25T23:12:08.868Z,0.83
2023-04-25T23:17:10.806Z,0.67
2023-04-25T23:22:14.442Z,0.90
2023-04-25T23:27:17.040Z,1.00
2023-04-25T23:32:19.395Z,1.30
2023-04-25T23:37:23.024Z,0.70
2023-04-25T23:42:25.121Z,1.27
2023-04-25T23:47:27.298Z,1.37
2023-04-25T23:52:30.818Z,1.23
2023-04-25T23:57:33.248Z,1.23
